createdAt,value
2023-02-01T00:00:03.000Z,97391
2023-02-01T00:05:03.000Z,97378
2023-02-01T00:10:03.000Z,97372
2023-02-01T00:15:03.000Z,97382
2023-02-01T00:20:03.000Z,97376
2023-02-01T00:25:03.000Z,97369
2023-02-01T00:30:03.000Z,97376
2023-02-01T00:35:03.000Z,97383
2023-02-01T00:40:03.000Z,97381
2023-02-01T00:45:03.000Z,97376
2023-02-01T00:50:03.000Z,97360
2023-02-01T00:55:03.000Z,97366
2023-02-01T01:00:03.000Z,97366
2023-02-01T01:05:03.000Z,97358
2023-02-01T01:10:03.000Z,97351
2023-02-01T01:15:03.000Z,97360
2023-02-01T01:20:03.000Z,97342
2023-02-01T01:25:03.000Z,97345
2023-02-01T01:30:03.000Z,97331
2023-02-01T01:35:03.000Z,97328
2023-02-01T01:40:03.000Z,97327
2023-02-01T01:45:03.000Z,97327
2023-02-01T01:50:03.000Z,97326
2023-02-01T01:55:03.000Z,97322
2023-02-01T02:00:03.000Z,97315
2023-02-01T02:05:03.000Z,97302
2023-02-01T02:10:03.000Z,97315
2023-02-01T02:15:03.000Z,97316
2023-02-01T02:20:03.000Z,97333
2023-02-01T02:25:03.000Z,97324
2023-02-01T02:30:03.000Z,97325
2023-02-01T02:35:03.000Z,97320
2023-02-01T02:40:03.000Z,97336
2023-02-01T02:45:03.000Z,97334
2023-02-01T02:50:03.000Z,97322
2023-02-01T02:55:03.000Z,97322
2023-02-01T03:00:03.000Z,97321
2023-02-01T03:05:03.000Z,97299
2023-02-01T03:10:03.000Z,97319
2023-02-01T03:15:03.000Z,97316
2023-02-01T03:20:03.000Z,97314
2023-02-01T03:25:03.000Z,97319
2023-02-01T03:30:03.000Z,97318
2023-02-01T03:35:03.000Z,97319
2023-02-01T03:40:03.000Z,97320
2023-02-01T03:45:03.000Z,97318
2023-02-01T03:50:03.000Z,97335
2023-02-01T03:55:04.000Z,97326
2023-02-01T04:00:04.000Z,97324
2023-02-01T04:05:04.000Z,97331
2023-02-01T04:10:04.000Z,97321
2023-02-01T04:15:04.000Z,97328
2023-02-01T04:20:04.000Z,97329
2023-02-01T04:25:04.000Z,97332
2023-02-01T04:30:04.000Z,97343
2023-02-01T04:35:04.000Z,97356
2023-02-01T04:40:04.000Z,97370
2023-02-01T04:45:04.000Z,97348
2023-02-01T04:50:04.000Z,97352
2023-02-01T04:55:04.000Z,97364
2023-02-01T05:00:04.000Z,97370
2023-02-01T05:05:04.000Z,97371
2023-02-01T05:10:04.000Z,97378
2023-02-01T05:15:04.000Z,97376
2023-02-01T05:20:04.000Z,97372
2023-02-01T05:25:04.000Z,97374
2023-02-01T05:30:04.000Z,97374
2023-02-01T05:35:04.000Z,97380
2023-02-01T05:40:04.000Z,97376
2023-02-01T05:45:04.000Z,97380
2023-02-01T05:50:04.000Z,97384
2023-02-01T05:55:04.000Z,97391
2023-02-01T06:00:04.000Z,97392
2023-02-01T06:05:04.000Z,97390
2023-02-01T06:10:04.000Z,97380
2023-02-01T06:15:04.000Z,97392
2023-02-01T06:20:04.000Z,97404
2023-02-01T06:25:04.000Z,97429
2023-02-01T06:30:04.000Z,97430
2023-02-01T06:35:04.000Z,97419
2023-02-01T06:40:04.000Z,97416
2023-02-01T06:45:04.000Z,97429
2023-02-01T06:50:04.000Z,97422
2023-02-01T06:55:04.000Z,97432
2023-02-01T07:00:04.000Z,97438
2023-02-01T07:05:04.000Z,97441
2023-02-01T07:10:04.000Z,97451
2023-02-01T07:15:04.000Z,97458
2023-02-01T07:20:04.000Z,97473
2023-02-01T07:25:04.000Z,97474
2023-02-01T07:30:04.000Z,97498
2023-02-01T07:35:04.000Z,97493
2023-02-01T07:40:04.000Z,97501
2023-02-01T07:45:04.000Z,97501
2023-02-01T07:50:04.000Z,97494
2023-02-01T07:55:04.000Z,97495
2023-02-01T08:00:04.000Z,97492
2023-02-01T08:05:04.000Z,97493
2023-02-01T08:10:04.000Z,97486
2023-02-01T08:15:04.000Z,97479
2023-02-01T08:20:04.000Z,97496
2023-02-01T08:25:04.000Z,97509
2023-02-01T08:30:04.000Z,97508
2023-02-01T08:35:04.000Z,97505
2023-02-01T08:40:04.000Z,97506
2023-02-01T08:45:04.000Z,97499
2023-02-01T08:50:04.000Z,97502
2023-02-01T08:55:04.000Z,97504
2023-02-01T09:00:04.000Z,97505
2023-02-01T09:05:04.000Z,97482
2023-02-01T09:10:04.000Z,97483
2023-02-01T09:15:04.000Z,97503
2023-02-01T09:20:04.000Z,97495
2023-02-01T09:25:04.000Z,97504
2023-02-01T09:30:04.000Z,97513
2023-02-01T09:35:04.000Z,97493
2023-02-01T09:40:04.000Z,97512
2023-02-01T09:45:04.000Z,97518
2023-02-01T09:50:04.000Z,97509
2023-02-01T09:55:04.000Z,97522
2023-02-01T10:00:04.000Z,97519
2023-02-01T10:05:04.000Z,97516
2023-02-01T10:10:04.000Z,97529
2023-02-01T10:15:04.000Z,97526
2023-02-01T10:20:04.000Z,97516
2023-02-01T10:25:04.000Z,97523
2023-02-01T10:30:04.000Z,97512
2023-02-01T10:35:04.000Z,97515
2023-02-01T10:40:04.000Z,97515
2023-02-01T10:45:04.000Z,97523
2023-02-01T10:50:04.000Z,97510
2023-02-01T10:55:04.000Z,97486
2023-02-01T11:00:04.000Z,97489
2023-02-01T11:05:04.000Z,97488
2023-02-01T11:10:04.000Z,97489
2023-02-01T11:15:04.000Z,97478
2023-02-01T11:20:04.000Z,97475
2023-02-01T11:25:04.000Z,97465
2023-02-01T11:30:04.000Z,97459
2023-02-01T11:35:04.000Z,97456
2023-02-01T11:40:04.000Z,97444
2023-02-01T11:45:04.000Z,97439
2023-02-01T11:50:04.000Z,97432
2023-02-01T11:55:04.000Z,97417
2023-02-01T12:00:04.000Z,97419
2023-02-01T12:05:04.000Z,97399
2023-02-01T12:10:04.000Z,97408
2023-02-01T12:15:04.000Z,97411
2023-02-01T12:20:04.000Z,97391
2023-02-01T12:25:04.000Z,97378
2023-02-01T12:30:04.000Z,97368
2023-02-01T12:35:04.000Z,97361
2023-02-01T12:40:04.000Z,97357
2023-02-01T12:45:04.000Z,97357
2023-02-01T12:50:04.000Z,97351
2023-02-01T12:55:04.000Z,97368
2023-02-01T13:00:04.000Z,97361
2023-02-01T13:05:04.000Z,97346
2023-02-01T13:10:04.000Z,97347
2023-02-01T13:15:04.000Z,97358
2023-02-01T13:20:04.000Z,97346
2023-02-01T13:25:04.000Z,97331
2023-02-01T13:30:04.000Z,97324
2023-02-01T13:35:04.000Z,97318
2023-02-01T13:40:04.000Z,97310
2023-02-01T13:45:04.000Z,97303
2023-02-01T13:50:04.000Z,97293
2023-02-01T13:55:04.000Z,97304
2023-02-01T14:00:04.000Z,97308
2023-02-01T14:05:04.000Z,97318
2023-02-01T14:10:04.000Z,97328
2023-02-01T14:15:04.000Z,97324
2023-02-01T14:20:04.000Z,97320
2023-02-01T14:25:04.000Z,97327
2023-02-01T14:30:04.000Z,97328
2023-02-01T14:35:04.000Z,97339
2023-02-01T14:40:04.000Z,97356
2023-02-01T14:45:04.000Z,97337
2023-02-01T14:50:04.000Z,97356
2023-02-01T14:55:04.000Z,97373
2023-02-01T15:00:04.000Z,97375
2023-02-01T15:05:04.000Z,97379
2023-02-01T15:10:04.000Z,97372
2023-02-01T15:15:04.000Z,97386
2023-02-01T15:20:04.000Z,97391
2023-02-01T15:25:04.000Z,97381
2023-02-01T15:30:04.000Z,97392
2023-02-01T15:35:04.000Z,97399
2023-02-01T15:40:04.000Z,97412
2023-02-01T15:45:04.000Z,97402
2023-02-01T15:50:04.000Z,97395
2023-02-01T15:55:04.000Z,97425
2023-02-01T16:00:04.000Z,97434
2023-02-01T16:05:04.000Z,97426
2023-02-01T16:10:04.000Z,97439
2023-02-01T16:15:04.000Z,97443
2023-02-01T16:20:04.000Z,97447
2023-02-01T16:25:04.000Z,97447
2023-02-01T16:30:04.000Z,97439
2023-02-01T16:35:04.000Z,97443
2023-02-01T16:40:04.000Z,97441
2023-02-01T16:45:04.000Z,97440
2023-02-01T16:50:04.000Z,97451
2023-02-01T16:55:04.000Z,97455
2023-02-01T17:00:04.000Z,97452
2023-02-01T17:05:04.000Z,97455
2023-02-01T17:10:04.000Z,97451
2023-02-01T17:15:04.000Z,97452
2023-02-01T17:20:04.000Z,97460
2023-02-01T17:25:04.000Z,97464
2023-02-01T17:30:04.000Z,97470
2023-02-01T17:35:04.000Z,97473
2023-02-01T17:40:04.000Z,97479
2023-02-01T17:45:04.000Z,97496
2023-02-01T17:50:04.000Z,97495
2023-02-01T17:55:04.000Z,97497
2023-02-01T18:00:04.000Z,97496
2023-02-01T18:05:04.000Z,97496
2023-02-01T18:10:04.000Z,97490
2023-02-01T18:15:04.000Z,97500
2023-02-01T18:20:04.000Z,97493
2023-02-01T18:25:04.000Z,97506
2023-02-01T18:30:04.000Z,97486
2023-02-01T18:35:04.000Z,97492
2023-02-01T18:40:04.000Z,97488
2023-02-01T18:45:04.000Z,97500
2023-02-01T18:50:04.000Z,97498
2023-02-01T18:55:04.000Z,97502
2023-02-01T19:00:04.000Z,97501
2023-02-01T19:05:04.000Z,97500
2023-02-01T19:10:04.000Z,97501
2023-02-01T19:15:04.000Z,97500
2023-02-01T19:20:04.000Z,97510
2023-02-01T19:25:04.000Z,97505
2023-02-01T19:30:04.000Z,97512
2023-02-01T19:35:04.000Z,97511
2023-02-01T19:40:04.000Z,97524
2023-02-01T19:45:04.000Z,97531
2023-02-01T19:50:04.000Z,97533
2023-02-01T19:55:04.000Z,97530
2023-02-01T20:00:04.000Z,97520
2023-02-01T20:05:04.000Z,97528
2023-02-01T20:10:04.000Z,97532
2023-02-01T20:15:04.000Z,97526
2023-02-01T20:20:04.000Z,97530
2023-02-01T20:25:04.000Z,97534
2023-02-01T20:30:04.000Z,97536
2023-02-01T20:35:04.000Z,97537
2023-02-01T20:40:04.000Z,97526
2023-02-01T20:45:04.000Z,97524
2023-02-01T20:50:04.000Z,97537
2023-02-01T20:55:04.000Z,97546
2023-02-01T21:00:04.000Z,97537
2023-02-01T21:05:04.000Z,97535
2023-02-01T21:10:04.000Z,97548
2023-02-01T21:15:04.000Z,97556
2023-02-01T21:20:04.000Z,97559
2023-02-01T21:25:04.000Z,97563
2023-02-01T21:30:04.000Z,97557
2023-02-01T21:35:04.000Z,97558
2023-02-01T21:40:04.000Z,97549
2023-02-01T21:45:04.000Z,97543
2023-02-01T21:50:04.000Z,97536
2023-02-01T21:55:04.000Z,97532
2023-02-01T22:00:04.000Z,97540
2023-02-01T22:05:04.000Z,97531
2023-02-01T22:10:04.000Z,97545
2023-02-01T22:15:04.000Z,97554
2023-02-01T22:20:04.000Z,97559
2023-02-01T22:25:04.000Z,97551
2023-02-01T22:30:04.000Z,97558
2023-02-01T22:35:04.000Z,97550
2023-02-01T22:40:04.000Z,97558
2023-02-01T22:45:04.000Z,97555
2023-02-01T22:50:04.000Z,97566
2023-02-01T22:55:04.000Z,97567
2023-02-01T23:00:05.000Z,97570
2023-02-01T23:05:05.000Z,97570
2023-02-01T23:10:05.000Z,97570
2023-02-01T23:15:05.000Z,97572
2023-02-01T23:20:05.000Z,97565
2023-02-01T23:25:05.000Z,97570
2023-02-01T23:30:05.000Z,97576
2023-02-01T23:35:05.000Z,97571
2023-02-01T23:40:05.000Z,97565
2023-02-01T23:45:05.000Z,97570
2023-02-01T23:50:05.000Z,97558
2023-02-01T23:55:05.000Z,97557
